sensor_id;sensor_type;location;lat;lon;timestamp;temperature;humidity
79356;SHT31;68825;51.978;5.654;2023-07-31T00:00:18;18.6;74.9
79356;SHT31;68825;51.978;5.654;2023-07-31T00:02:46;18.6;74.9
79356;SHT31;68825;51.978;5.654;2023-07-31T00:05:15;18.6;75.0
79356;SHT31;68825;51.978;5.654;2023-07-31T00:07:44;18.6;75.4
79356;SHT31;68825;51.978;5.654;2023-07-31T00:10:12;18.6;75.3
79356;SHT31;68825;51.978;5.654;2023-07-31T00:12:44;18.6;75.4
79356;SHT31;68825;51.978;5.654;2023-07-31T00:15:14;18.6;75.4
79356;SHT31;68825;51.978;5.654;2023-07-31T00:17:43;18.6;75.4
79356;SHT31;68825;51.978;5.654;2023-07-31T00:20:12;18.6;75.8
79356;SHT31;68825;51.978;5.654;2023-07-31T00:22:40;18.6;76.0
79356;SHT31;68825;51.978;5.654;2023-07-31T00:25:09;18.6;76.2
79356;SHT31;68825;51.978;5.654;2023-07-31T00:27:38;18.6;76.6
79356;SHT31;68825;51.978;5.654;2023-07-31T00:30:11;18.6;77.1
79356;SHT31;68825;51.978;5.654;2023-07-31T00:32:40;18.6;77.0
79356;SHT31;68825;51.978;5.654;2023-07-31T00:35:09;18.6;77.3
79356;SHT31;68825;51.978;5.654;2023-07-31T00:37:37;18.6;77.6
79356;SHT31;68825;51.978;5.654;2023-07-31T00:40:07;18.6;78.0
79356;SHT31;68825;51.978;5.654;2023-07-31T00:42:37;18.6;78.3
79356;SHT31;68825;51.978;5.654;2023-07-31T00:45:06;18.6;78.8
79356;SHT31;68825;51.978;5.654;2023-07-31T00:47:34;18.6;79.0
79356;SHT31;68825;51.978;5.654;2023-07-31T00:50:03;18.6;79.1
79356;SHT31;68825;51.978;5.654;2023-07-31T00:52:35;18.7;79.3
79356;SHT31;68825;51.978;5.654;2023-07-31T00:55:04;18.7;79.4
79356;SHT31;68825;51.978;5.654;2023-07-31T00:57:34;18.7;79.2
79356;SHT31;68825;51.978;5.654;2023-07-31T01:00:05;18.8;79.2
79356;SHT31;68825;51.978;5.654;2023-07-31T01:02:35;18.8;79.2
79356;SHT31;68825;51.978;5.654;2023-07-31T01:05:04;18.8;79.2
79356;SHT31;68825;51.978;5.654;2023-07-31T01:07:42;18.8;79.3
79356;SHT31;68825;51.978;5.654;2023-07-31T01:10:17;18.9;79.2
79356;SHT31;68825;51.978;5.654;2023-07-31T01:12:48;18.9;78.9
79356;SHT31;68825;51.978;5.654;2023-07-31T01:15:18;18.9;78.7
79356;SHT31;68825;51.978;5.654;2023-07-31T01:17:47;18.9;78.9
79356;SHT31;68825;51.978;5.654;2023-07-31T01:20:21;18.9;78.6
79356;SHT31;68825;51.978;5.654;2023-07-31T01:23:13;18.9;78.6
79356;SHT31;68825;51.978;5.654;2023-07-31T01:26:13;18.9;78.6
79356;SHT31;68825;51.978;5.654;2023-07-31T01:28:53;18.9;78.5
79356;SHT31;68825;51.978;5.654;2023-07-31T01:31:24;18.9;78.3
79356;SHT31;68825;51.978;5.654;2023-07-31T01:33:59;18.9;78.1
79356;SHT31;68825;51.978;5.654;2023-07-31T01:36:30;18.9;78.0
79356;SHT31;68825;51.978;5.654;2023-07-31T01:39:01;18.9;78.0
79356;SHT31;68825;51.978;5.654;2023-07-31T01:41:30;18.9;78.1
79356;SHT31;68825;51.978;5.654;2023-07-31T01:43:58;18.9;78.3
79356;SHT31;68825;51.978;5.654;2023-07-31T01:46:27;18.9;77.9
79356;SHT31;68825;51.978;5.654;2023-07-31T01:48:56;18.9;77.9
79356;SHT31;68825;51.978;5.654;2023-07-31T01:51:24;18.9;78.1
79356;SHT31;68825;51.978;5.654;2023-07-31T01:53:53;18.9;78.0
79356;SHT31;68825;51.978;5.654;2023-07-31T01:56:21;18.9;78.2
79356;SHT31;68825;51.978;5.654;2023-07-31T01:58:50;18.9;77.9
79356;SHT31;68825;51.978;5.654;2023-07-31T02:01:18;18.9;77.9
79356;SHT31;68825;51.978;5.654;2023-07-31T02:03:47;18.9;77.9
79356;SHT31;68825;51.978;5.654;2023-07-31T02:06:15;18.9;78.2
79356;SHT31;68825;51.978;5.654;2023-07-31T02:08:44;18.9;78.6
79356;SHT31;68825;51.978;5.654;2023-07-31T02:11:14;18.9;78.6
79356;SHT31;68825;51.978;5.654;2023-07-31T02:13:42;18.9;78.5
79356;SHT31;68825;51.978;5.654;2023-07-31T02:16:11;18.9;79.0
79356;SHT31;68825;51.978;5.654;2023-07-31T02:18:39;18.8;79.0
79356;SHT31;68825;51.978;5.654;2023-07-31T02:21:10;18.8;79.2
79356;SHT31;68825;51.978;5.654;2023-07-31T02:23:39;18.8;79.4
79356;SHT31;68825;51.978;5.654;2023-07-31T02:26:07;18.8;79.7
79356;SHT31;68825;51.978;5.654;2023-07-31T02:28:37;18.7;79.8
79356;SHT31;68825;51.978;5.654;2023-07-31T02:31:09;18.7;79.8
79356;SHT31;68825;51.978;5.654;2023-07-31T02:33:37;18.6;79.7
79356;SHT31;68825;51.978;5.654;2023-07-31T02:36:08;18.6;80.2
79356;SHT31;68825;51.978;5.654;2023-07-31T02:38:36;18.5;80.2
79356;SHT31;68825;51.978;5.654;2023-07-31T02:41:05;18.5;80.4
79356;SHT31;68825;51.978;5.654;2023-07-31T02:43:34;18.5;80.3
79356;SHT31;68825;51.978;5.654;2023-07-31T02:46:02;18.5;80.1
79356;SHT31;68825;51.978;5.654;2023-07-31T02:48:31;18.5;79.5
79356;SHT31;68825;51.978;5.654;2023-07-31T02:51:00;18.5;79.8
79356;SHT31;68825;51.978;5.654;2023-07-31T02:53:28;18.5;80.0
79356;SHT31;68825;51.978;5.654;2023-07-31T02:55:57;18.5;79.9
79356;SHT31;68825;51.978;5.654;2023-07-31T02:58:25;18.5;79.8
79356;SHT31;68825;51.978;5.654;2023-07-31T03:00:54;18.5;80.1
79356;SHT31;68825;51.978;5.654;2023-07-31T03:03:22;18.5;79.7
79356;SHT31;68825;51.978;5.654;2023-07-31T03:05:51;18.4;79.3
79356;SHT31;68825;51.978;5.654;2023-07-31T03:08:20;18.4;79.6
79356;SHT31;68825;51.978;5.654;2023-07-31T03:10:48;18.4;79.1
79356;SHT31;68825;51.978;5.654;2023-07-31T03:13:17;18.4;79.0
79356;SHT31;68825;51.978;5.654;2023-07-31T03:15:47;18.4;78.8
79356;SHT31;68825;51.978;5.654;2023-07-31T03:18:16;18.4;79.1
79356;SHT31;68825;51.978;5.654;2023-07-31T03:20:44;18.4;79.3
79356;SHT31;68825;51.978;5.654;2023-07-31T03:23:13;18.4;78.7
79356;SHT31;68825;51.978;5.654;2023-07-31T03:25:59;18.4;78.5
79356;SHT31;68825;51.978;5.654;2023-07-31T03:28:29;18.4;79.6
79356;SHT31;68825;51.978;5.654;2023-07-31T03:30:58;18.3;78.4
79356;SHT31;68825;51.978;5.654;2023-07-31T03:33:27;18.3;78.6
79356;SHT31;68825;51.978;5.654;2023-07-31T03:35:55;18.3;78.1
79356;SHT31;68825;51.978;5.654;2023-07-31T03:38:26;18.3;78.0
79356;SHT31;68825;51.978;5.654;2023-07-31T03:40:54;18.3;78.3
79356;SHT31;68825;51.978;5.654;2023-07-31T03:43:27;18.3;79.4
79356;SHT31;68825;51.978;5.654;2023-07-31T03:45:55;18.3;78.8
79356;SHT31;68825;51.978;5.654;2023-07-31T03:48:24;18.3;78.3
79356;SHT31;68825;51.978;5.654;2023-07-31T03:50:53;18.3;78.3
79356;SHT31;68825;51.978;5.654;2023-07-31T03:53:21;18.3;78.4
79356;SHT31;68825;51.978;5.654;2023-07-31T03:55:50;18.3;78.6
79356;SHT31;68825;51.978;5.654;2023-07-31T03:58:18;18.3;78.9
79356;SHT31;68825;51.978;5.654;2023-07-31T04:00:47;18.3;77.8
79356;SHT31;68825;51.978;5.654;2023-07-31T04:03:16;18.3;77.7
79356;SHT31;68825;51.978;5.654;2023-07-31T04:05:44;18.3;77.8
79356;SHT31;68825;51.978;5.654;2023-07-31T04:08:12;18.3;77.3
79356;SHT31;68825;51.978;5.654;2023-07-31T04:10:41;18.3;78.0
79356;SHT31;68825;51.978;5.654;2023-07-31T04:13:09;18.3;78.1
79356;SHT31;68825;51.978;5.654;2023-07-31T04:15:38;18.3;76.7
79356;SHT31;68825;51.978;5.654;2023-07-31T04:18:09;18.3;76.9
79356;SHT31;68825;51.978;5.654;2023-07-31T04:20:37;18.3;77.2
79356;SHT31;68825;51.978;5.654;2023-07-31T04:23:06;18.3;77.2
79356;SHT31;68825;51.978;5.654;2023-07-31T04:25:35;18.3;76.8
79356;SHT31;68825;51.978;5.654;2023-07-31T04:28:03;18.3;76.4
79356;SHT31;68825;51.978;5.654;2023-07-31T04:30:32;18.3;77.3
79356;SHT31;68825;51.978;5.654;2023-07-31T04:33:00;18.4;76.7
79356;SHT31;68825;51.978;5.654;2023-07-31T04:35:29;18.4;76.0
79356;SHT31;68825;51.978;5.654;2023-07-31T04:37:58;18.4;76.5
79356;SHT31;68825;51.978;5.654;2023-07-31T04:40:26;18.4;77.0
79356;SHT31;68825;51.978;5.654;2023-07-31T04:42:55;18.4;76.0
79356;SHT31;68825;51.978;5.654;2023-07-31T04:45:24;18.4;76.5
79356;SHT31;68825;51.978;5.654;2023-07-31T04:47:52;18.4;76.3
79356;SHT31;68825;51.978;5.654;2023-07-31T04:50:21;18.4;76.5
79356;SHT31;68825;51.978;5.654;2023-07-31T04:52:49;18.5;75.9
79356;SHT31;68825;51.978;5.654;2023-07-31T04:55:18;18.5;76.5
79356;SHT31;68825;51.978;5.654;2023-07-31T04:57:46;18.5;76.8
79356;SHT31;68825;51.978;5.654;2023-07-31T05:00:15;18.5;75.6
79356;SHT31;68825;51.978;5.654;2023-07-31T05:02:44;18.5;76.2
79356;SHT31;68825;51.978;5.654;2023-07-31T05:05:12;18.5;76.0
79356;SHT31;68825;51.978;5.654;2023-07-31T05:07:41;18.5;76.3
79356;SHT31;68825;51.978;5.654;2023-07-31T05:10:11;18.5;76.2
79356;SHT31;68825;51.978;5.654;2023-07-31T05:12:39;18.6;76.3
79356;SHT31;68825;51.978;5.654;2023-07-31T05:15:09;18.6;76.1
79356;SHT31;68825;51.978;5.654;2023-07-31T05:17:37;18.6;76.3
79356;SHT31;68825;51.978;5.654;2023-07-31T05:20:06;18.6;76.2
79356;SHT31;68825;51.978;5.654;2023-07-31T05:22:35;18.6;76.3
79356;SHT31;68825;51.978;5.654;2023-07-31T05:25:04;18.6;76.3
79356;SHT31;68825;51.978;5.654;2023-07-31T05:27:33;18.6;76.5
79356;SHT31;68825;51.978;5.654;2023-07-31T05:30:02;18.6;77.2
79356;SHT31;68825;51.978;5.654;2023-07-31T05:32:30;18.6;77.0
79356;SHT31;68825;51.978;5.654;2023-07-31T05:34:59;18.6;76.9
79356;SHT31;68825;51.978;5.654;2023-07-31T05:37:28;18.6;77.4
79356;SHT31;68825;51.978;5.654;2023-07-31T05:39:57;18.5;77.6
79356;SHT31;68825;51.978;5.654;2023-07-31T05:42:25;18.5;78.0
79356;SHT31;68825;51.978;5.654;2023-07-31T05:44:54;18.5;77.8
79356;SHT31;68825;51.978;5.654;2023-07-31T05:47:22;18.5;77.9
79356;SHT31;68825;51.978;5.654;2023-07-31T05:49:51;18.5;78.3
79356;SHT31;68825;51.978;5.654;2023-07-31T05:52:20;18.4;78.3
79356;SHT31;68825;51.978;5.654;2023-07-31T05:54:49;18.4;78.3
79356;SHT31;68825;51.978;5.654;2023-07-31T05:57:18;18.4;79.0
79356;SHT31;68825;51.978;5.654;2023-07-31T05:59:46;18.4;79.1
79356;SHT31;68825;51.978;5.654;2023-07-31T06:02:17;18.4;78.9
79356;SHT31;68825;51.978;5.654;2023-07-31T06:04:45;18.4;79.1
79356;SHT31;68825;51.978;5.654;2023-07-31T06:07:15;18.4;79.3
79356;SHT31;68825;51.978;5.654;2023-07-31T06:09:43;18.3;79.5
79356;SHT31;68825;51.978;5.654;2023-07-31T06:12:12;18.3;79.5
79356;SHT31;68825;51.978;5.654;2023-07-31T06:14:44;18.3;79.8
79356;SHT31;68825;51.978;5.654;2023-07-31T06:17:12;18.3;79.8
79356;SHT31;68825;51.978;5.654;2023-07-31T06:19:41;18.3;80.1
79356;SHT31;68825;51.978;5.654;2023-07-31T06:22:10;18.3;80.3
79356;SHT31;68825;51.978;5.654;2023-07-31T06:24:38;18.3;80.7
79356;SHT31;68825;51.978;5.654;2023-07-31T06:27:09;18.3;80.4
79356;SHT31;68825;51.978;5.654;2023-07-31T06:29:37;18.4;80.6
79356;SHT31;68825;51.978;5.654;2023-07-31T06:32:08;18.3;80.7
79356;SHT31;68825;51.978;5.654;2023-07-31T06:34:37;18.3;80.8
79356;SHT31;68825;51.978;5.654;2023-07-31T06:37:06;18.3;80.9
79356;SHT31;68825;51.978;5.654;2023-07-31T06:39:34;18.3;81.5
79356;SHT31;68825;51.978;5.654;2023-07-31T06:42:04;18.4;81.3
79356;SHT31;68825;51.978;5.654;2023-07-31T06:44:32;18.4;81.5
79356;SHT31;68825;51.978;5.654;2023-07-31T06:47:03;18.4;81.0
79356;SHT31;68825;51.978;5.654;2023-07-31T06:49:33;18.4;81.1
79356;SHT31;68825;51.978;5.654;2023-07-31T06:52:02;18.4;81.2
79356;SHT31;68825;51.978;5.654;2023-07-31T06:54:30;18.4;81.2
79356;SHT31;68825;51.978;5.654;2023-07-31T06:56:59;18.4;81.2
79356;SHT31;68825;51.978;5.654;2023-07-31T06:59:27;18.4;81.5
79356;SHT31;68825;51.978;5.654;2023-07-31T07:01:56;18.4;81.6
79356;SHT31;68825;51.978;5.654;2023-07-31T07:04:24;18.4;81.6
79356;SHT31;68825;51.978;5.654;2023-07-31T07:06:53;18.4;81.9
79356;SHT31;68825;51.978;5.654;2023-07-31T07:09:22;18.5;81.9
79356;SHT31;68825;51.978;5.654;2023-07-31T07:11:52;18.5;82.2
79356;SHT31;68825;51.978;5.654;2023-07-31T07:14:21;18.5;82.2
79356;SHT31;68825;51.978;5.654;2023-07-31T07:16:52;18.5;82.0
79356;SHT31;68825;51.978;5.654;2023-07-31T07:19:21;18.5;82.0
79356;SHT31;68825;51.978;5.654;2023-07-31T07:21:49;18.6;82.2
79356;SHT31;68825;51.978;5.654;2023-07-31T07:24:18;18.6;81.9
79356;SHT31;68825;51.978;5.654;2023-07-31T07:26:47;18.6;81.9
79356;SHT31;68825;51.978;5.654;2023-07-31T07:29:15;18.6;81.7
79356;SHT31;68825;51.978;5.654;2023-07-31T07:31:44;18.6;81.6
79356;SHT31;68825;51.978;5.654;2023-07-31T07:34:12;18.7;81.3
79356;SHT31;68825;51.978;5.654;2023-07-31T07:36:41;18.7;81.4
79356;SHT31;68825;51.978;5.654;2023-07-31T07:39:11;18.7;81.3
79356;SHT31;68825;51.978;5.654;2023-07-31T07:41:41;18.7;81.6
79356;SHT31;68825;51.978;5.654;2023-07-31T07:44:10;18.7;81.7
79356;SHT31;68825;51.978;5.654;2023-07-31T07:46:39;18.7;81.7
79356;SHT31;68825;51.978;5.654;2023-07-31T07:49:07;18.7;81.5
79356;SHT31;68825;51.978;5.654;2023-07-31T07:51:36;18.7;81.7
79356;SHT31;68825;51.978;5.654;2023-07-31T07:54:05;18.7;81.7
79356;SHT31;68825;51.978;5.654;2023-07-31T07:56:34;18.8;81.7
79356;SHT31;68825;51.978;5.654;2023-07-31T07:59:03;18.8;81.8
79356;SHT31;68825;51.978;5.654;2023-07-31T08:01:33;18.8;81.9
79356;SHT31;68825;51.978;5.654;2023-07-31T08:04:02;18.8;81.8
79356;SHT31;68825;51.978;5.654;2023-07-31T08:06:33;18.8;81.8
79356;SHT31;68825;51.978;5.654;2023-07-31T08:09:01;18.8;81.7
79356;SHT31;68825;51.978;5.654;2023-07-31T08:11:32;18.8;81.6
79356;SHT31;68825;51.978;5.654;2023-07-31T08:14:01;18.9;81.7
79356;SHT31;68825;51.978;5.654;2023-07-31T08:16:30;18.9;81.9
79356;SHT31;68825;51.978;5.654;2023-07-31T08:19:01;18.9;81.6
79356;SHT31;68825;51.978;5.654;2023-07-31T08:21:29;18.9;81.7
79356;SHT31;68825;51.978;5.654;2023-07-31T08:23:58;18.9;82.0
79356;SHT31;68825;51.978;5.654;2023-07-31T08:26:28;18.9;82.1
79356;SHT31;68825;51.978;5.654;2023-07-31T08:28:57;18.9;81.8
79356;SHT31;68825;51.978;5.654;2023-07-31T08:31:25;18.9;81.8
79356;SHT31;68825;51.978;5.654;2023-07-31T08:33:55;18.9;82.1
79356;SHT31;68825;51.978;5.654;2023-07-31T08:36:24;18.9;82.2
79356;SHT31;68825;51.978;5.654;2023-07-31T08:38:52;18.9;82.5
79356;SHT31;68825;51.978;5.654;2023-07-31T08:41:21;18.9;82.6
79356;SHT31;68825;51.978;5.654;2023-07-31T08:43:50;19.0;83.0
79356;SHT31;68825;51.978;5.654;2023-07-31T08:46:21;19.0;82.9
79356;SHT31;68825;51.978;5.654;2023-07-31T08:48:53;19.0;82.6
79356;SHT31;68825;51.978;5.654;2023-07-31T08:51:25;19.0;82.4
79356;SHT31;68825;51.978;5.654;2023-07-31T08:53:54;19.0;82.3
79356;SHT31;68825;51.978;5.654;2023-07-31T08:56:26;19.1;82.4
79356;SHT31;68825;51.978;5.654;2023-07-31T08:58:55;19.1;82.5
79356;SHT31;68825;51.978;5.654;2023-07-31T09:01:26;19.1;82.4
79356;SHT31;68825;51.978;5.654;2023-07-31T09:03:59;19.1;81.8
79356;SHT31;68825;51.978;5.654;2023-07-31T09:06:32;19.1;82.1
79356;SHT31;68825;51.978;5.654;2023-07-31T09:09:02;19.1;81.9
79356;SHT31;68825;51.978;5.654;2023-07-31T09:11:30;19.1;81.8
79356;SHT31;68825;51.978;5.654;2023-07-31T09:14:00;19.1;82.0
79356;SHT31;68825;51.978;5.654;2023-07-31T09:16:34;19.1;82.2
79356;SHT31;68825;51.978;5.654;2023-07-31T09:19:03;19.1;82.1
79356;SHT31;68825;51.978;5.654;2023-07-31T09:21:32;19.1;82.2
79356;SHT31;68825;51.978;5.654;2023-07-31T09:24:00;19.2;82.1
79356;SHT31;68825;51.978;5.654;2023-07-31T09:26:33;19.2;81.6
79356;SHT31;68825;51.978;5.654;2023-07-31T09:29:04;19.2;81.7
79356;SHT31;68825;51.978;5.654;2023-07-31T09:31:39;19.2;81.8
79356;SHT31;68825;51.978;5.654;2023-07-31T09:34:08;19.2;81.3
79356;SHT31;68825;51.978;5.654;2023-07-31T09:36:42;19.1;81.7
79356;SHT31;68825;51.978;5.654;2023-07-31T09:39:12;19.1;81.8
79356;SHT31;68825;51.978;5.654;2023-07-31T09:41:44;19.2;81.6
79356;SHT31;68825;51.978;5.654;2023-07-31T09:44:15;19.2;82.1
79356;SHT31;68825;51.978;5.654;2023-07-31T09:46:44;19.2;82.2
79356;SHT31;68825;51.978;5.654;2023-07-31T09:49:14;19.2;82.4
79356;SHT31;68825;51.978;5.654;2023-07-31T09:51:45;19.2;82.4
79356;SHT31;68825;51.978;5.654;2023-07-31T09:54:15;19.3;82.3
79356;SHT31;68825;51.978;5.654;2023-07-31T09:56:48;19.3;82.2
79356;SHT31;68825;51.978;5.654;2023-07-31T09:59:21;19.3;81.3
79356;SHT31;68825;51.978;5.654;2023-07-31T10:01:49;19.3;81.3
79356;SHT31;68825;51.978;5.654;2023-07-31T10:04:22;19.4;81.1
79356;SHT31;68825;51.978;5.654;2023-07-31T10:06:54;19.4;81.5
79356;SHT31;68825;51.978;5.654;2023-07-31T10:09:26;19.4;81.2
79356;SHT31;68825;51.978;5.654;2023-07-31T10:12:00;19.4;81.7
79356;SHT31;68825;51.978;5.654;2023-07-31T10:14:31;19.4;81.9
79356;SHT31;68825;51.978;5.654;2023-07-31T10:17:02;19.4;81.7
79356;SHT31;68825;51.978;5.654;2023-07-31T10:19:31;19.5;81.3
79356;SHT31;68825;51.978;5.654;2023-07-31T10:22:05;19.5;82.2
79356;SHT31;68825;51.978;5.654;2023-07-31T10:24:35;19.5;81.7
79356;SHT31;68825;51.978;5.654;2023-07-31T10:27:07;19.6;81.2
79356;SHT31;68825;51.978;5.654;2023-07-31T10:29:37;19.6;81.6
79356;SHT31;68825;51.978;5.654;2023-07-31T10:32:09;19.6;81.3
79356;SHT31;68825;51.978;5.654;2023-07-31T10:34:39;19.7;81.1
79356;SHT31;68825;51.978;5.654;2023-07-31T10:37:28;19.7;80.7
79356;SHT31;68825;51.978;5.654;2023-07-31T10:40:00;19.7;80.5
79356;SHT31;68825;51.978;5.654;2023-07-31T10:42:31;19.7;81.0
79356;SHT31;68825;51.978;5.654;2023-07-31T10:45:02;19.8;80.3
79356;SHT31;68825;51.978;5.654;2023-07-31T10:47:36;19.8;80.7
79356;SHT31;68825;51.978;5.654;2023-07-31T10:51:11;19.8;80.4
79356;SHT31;68825;51.978;5.654;2023-07-31T10:53:40;19.8;80.7
79356;SHT31;68825;51.978;5.654;2023-07-31T10:56:11;19.8;81.1
79356;SHT31;68825;51.978;5.654;2023-07-31T10:58:45;19.9;80.7
79356;SHT31;68825;51.978;5.654;2023-07-31T11:01:14;19.9;80.8
79356;SHT31;68825;51.978;5.654;2023-07-31T11:03:45;19.9;80.9
79356;SHT31;68825;51.978;5.654;2023-07-31T11:06:15;19.9;81.2
79356;SHT31;68825;51.978;5.654;2023-07-31T11:08:46;19.9;80.9
79356;SHT31;68825;51.978;5.654;2023-07-31T11:11:19;19.9;81.4
79356;SHT31;68825;51.978;5.654;2023-07-31T11:13:49;20.0;81.0
79356;SHT31;68825;51.978;5.654;2023-07-31T11:16:21;20.0;81.1
79356;SHT31;68825;51.978;5.654;2023-07-31T11:18:51;20.0;80.8
79356;SHT31;68825;51.978;5.654;2023-07-31T11:21:23;20.0;80.6
79356;SHT31;68825;51.978;5.654;2023-07-31T11:23:56;20.0;80.9
79356;SHT31;68825;51.978;5.654;2023-07-31T11:26:25;20.0;81.4
79356;SHT31;68825;51.978;5.654;2023-07-31T11:28:54;20.0;80.9
79356;SHT31;68825;51.978;5.654;2023-07-31T11:31:24;20.0;81.6
79356;SHT31;68825;51.978;5.654;2023-07-31T11:34:06;20.0;81.1
79356;SHT31;68825;51.978;5.654;2023-07-31T11:36:34;20.1;80.4
79356;SHT31;68825;51.978;5.654;2023-07-31T11:39:07;20.1;80.8
79356;SHT31;68825;51.978;5.654;2023-07-31T11:41:40;20.1;81.5
79356;SHT31;68825;51.978;5.654;2023-07-31T11:44:09;20.2;80.5
79356;SHT31;68825;51.978;5.654;2023-07-31T11:46:38;20.2;80.4
79356;SHT31;68825;51.978;5.654;2023-07-31T11:49:07;20.2;81.5
79356;SHT31;68825;51.978;5.654;2023-07-31T11:51:38;20.2;80.5
79356;SHT31;68825;51.978;5.654;2023-07-31T11:54:07;20.2;80.6
79356;SHT31;68825;51.978;5.654;2023-07-31T11:56:40;20.3;79.8
79356;SHT31;68825;51.978;5.654;2023-07-31T11:59:09;20.3;79.9
79356;SHT31;68825;51.978;5.654;2023-07-31T12:01:39;20.3;80.7
79356;SHT31;68825;51.978;5.654;2023-07-31T12:04:08;20.3;80.5
79356;SHT31;68825;51.978;5.654;2023-07-31T12:06:37;20.4;79.3
79356;SHT31;68825;51.978;5.654;2023-07-31T12:09:06;20.4;79.0
79356;SHT31;68825;51.978;5.654;2023-07-31T12:11:44;20.4;79.2
79356;SHT31;68825;51.978;5.654;2023-07-31T12:14:23;20.4;78.9
79356;SHT31;68825;51.978;5.654;2023-07-31T12:16:55;20.5;79.4
79356;SHT31;68825;51.978;5.654;2023-07-31T12:19:25;20.5;78.9
79356;SHT31;68825;51.978;5.654;2023-07-31T12:21:57;20.5;79.3
79356;SHT31;68825;51.978;5.654;2023-07-31T12:24:27;20.5;79.7
79356;SHT31;68825;51.978;5.654;2023-07-31T12:26:56;20.6;79.3
79356;SHT31;68825;51.978;5.654;2023-07-31T12:29:35;20.6;78.8
79356;SHT31;68825;51.978;5.654;2023-07-31T12:32:06;20.6;78.5
79356;SHT31;68825;51.978;5.654;2023-07-31T12:34:43;20.6;78.7
79356;SHT31;68825;51.978;5.654;2023-07-31T12:37:12;20.6;78.4
79356;SHT31;68825;51.978;5.654;2023-07-31T12:39:41;20.6;79.3
79356;SHT31;68825;51.978;5.654;2023-07-31T12:42:09;20.6;79.0
79356;SHT31;68825;51.978;5.654;2023-07-31T12:44:39;20.6;79.5
79356;SHT31;68825;51.978;5.654;2023-07-31T12:47:09;20.6;79.2
79356;SHT31;68825;51.978;5.654;2023-07-31T12:49:37;20.7;79.7
79356;SHT31;68825;51.978;5.654;2023-07-31T12:52:06;20.7;79.5
79356;SHT31;68825;51.978;5.654;2023-07-31T12:54:35;20.7;79.3
79356;SHT31;68825;51.978;5.654;2023-07-31T12:57:03;20.7;79.5
79356;SHT31;68825;51.978;5.654;2023-07-31T12:59:32;20.7;79.9
79356;SHT31;68825;51.978;5.654;2023-07-31T13:02:01;20.8;79.8
79356;SHT31;68825;51.978;5.654;2023-07-31T13:04:29;20.8;78.6
79356;SHT31;68825;51.978;5.654;2023-07-31T13:06:58;20.8;78.3
79356;SHT31;68825;51.978;5.654;2023-07-31T13:09:26;20.8;78.1
79356;SHT31;68825;51.978;5.654;2023-07-31T13:11:55;20.8;78.1
79356;SHT31;68825;51.978;5.654;2023-07-31T13:14:23;20.8;77.9
79356;SHT31;68825;51.978;5.654;2023-07-31T13:16:52;20.8;77.6
79356;SHT31;68825;51.978;5.654;2023-07-31T13:19:21;20.8;77.9
79356;SHT31;68825;51.978;5.654;2023-07-31T13:21:50;20.8;78.6
79356;SHT31;68825;51.978;5.654;2023-07-31T13:24:19;20.8;78.1
79356;SHT31;68825;51.978;5.654;2023-07-31T13:26:47;20.8;77.9
79356;SHT31;68825;51.978;5.654;2023-07-31T13:29:16;20.8;78.2
79356;SHT31;68825;51.978;5.654;2023-07-31T13:31:44;20.8;78.1
79356;SHT31;68825;51.978;5.654;2023-07-31T13:34:15;20.8;77.3
79356;SHT31;68825;51.978;5.654;2023-07-31T13:36:44;20.9;78.1
79356;SHT31;68825;51.978;5.654;2023-07-31T13:39:12;20.9;78.4
79356;SHT31;68825;51.978;5.654;2023-07-31T13:41:41;20.9;78.5
79356;SHT31;68825;51.978;5.654;2023-07-31T13:44:10;20.9;78.4
79356;SHT31;68825;51.978;5.654;2023-07-31T13:46:38;20.8;77.7
79356;SHT31;68825;51.978;5.654;2023-07-31T13:49:07;20.8;78.2
79356;SHT31;68825;51.978;5.654;2023-07-31T13:51:35;20.8;78.6
79356;SHT31;68825;51.978;5.654;2023-07-31T13:54:07;20.8;78.3
79356;SHT31;68825;51.978;5.654;2023-07-31T13:56:38;20.8;78.7
79356;SHT31;68825;51.978;5.654;2023-07-31T13:59:06;20.8;79.2
79356;SHT31;68825;51.978;5.654;2023-07-31T14:01:35;20.7;78.8
79356;SHT31;68825;51.978;5.654;2023-07-31T14:04:04;20.7;79.1
79356;SHT31;68825;51.978;5.654;2023-07-31T14:06:32;20.7;79.0
79356;SHT31;68825;51.978;5.654;2023-07-31T14:09:01;20.7;79.0
79356;SHT31;68825;51.978;5.654;2023-07-31T14:11:30;20.7;79.1
79356;SHT31;68825;51.978;5.654;2023-07-31T14:13:59;20.7;79.3
79356;SHT31;68825;51.978;5.654;2023-07-31T14:16:28;20.7;79.6
79356;SHT31;68825;51.978;5.654;2023-07-31T14:18:58;20.7;79.3
79356;SHT31;68825;51.978;5.654;2023-07-31T14:21:27;20.7;79.3
79356;SHT31;68825;51.978;5.654;2023-07-31T14:23:57;20.7;79.2
79356;SHT31;68825;51.978;5.654;2023-07-31T14:26:26;20.7;79.0
79356;SHT31;68825;51.978;5.654;2023-07-31T14:28:55;20.7;78.8
79356;SHT31;68825;51.978;5.654;2023-07-31T14:31:23;20.7;79.3
79356;SHT31;68825;51.978;5.654;2023-07-31T14:33:52;20.7;79.0
79356;SHT31;68825;51.978;5.654;2023-07-31T14:36:20;20.7;79.1
79356;SHT31;68825;51.978;5.654;2023-07-31T14:38:54;20.7;79.2
79356;SHT31;68825;51.978;5.654;2023-07-31T14:41:28;20.7;79.3
79356;SHT31;68825;51.978;5.654;2023-07-31T14:43:57;20.7;79.3
79356;SHT31;68825;51.978;5.654;2023-07-31T14:46:26;20.7;79.6
79356;SHT31;68825;51.978;5.654;2023-07-31T14:48:54;20.7;79.3
79356;SHT31;68825;51.978;5.654;2023-07-31T14:51:23;20.7;78.8
79356;SHT31;68825;51.978;5.654;2023-07-31T14:53:52;20.7;79.2
79356;SHT31;68825;51.978;5.654;2023-07-31T14:56:20;20.7;79.3
79356;SHT31;68825;51.978;5.654;2023-07-31T14:58:49;20.7;78.6
79356;SHT31;68825;51.978;5.654;2023-07-31T15:01:18;20.7;79.0
79356;SHT31;68825;51.978;5.654;2023-07-31T15:03:47;20.6;79.2
79356;SHT31;68825;51.978;5.654;2023-07-31T15:06:16;20.6;79.3
79356;SHT31;68825;51.978;5.654;2023-07-31T15:08:44;20.6;79.1
79356;SHT31;68825;51.978;5.654;2023-07-31T15:11:13;20.6;79.6
79356;SHT31;68825;51.978;5.654;2023-07-31T15:13:43;20.6;79.4
79356;SHT31;68825;51.978;5.654;2023-07-31T15:16:12;20.6;79.5
79356;SHT31;68825;51.978;5.654;2023-07-31T15:18:40;20.7;79.0
79356;SHT31;68825;51.978;5.654;2023-07-31T15:21:10;20.7;78.9
79356;SHT31;68825;51.978;5.654;2023-07-31T15:23:39;20.7;79.0
79356;SHT31;68825;51.978;5.654;2023-07-31T15:26:07;20.7;79.0
79356;SHT31;68825;51.978;5.654;2023-07-31T15:28:36;20.7;79.0
79356;SHT31;68825;51.978;5.654;2023-07-31T15:31:05;20.7;79.0
79356;SHT31;68825;51.978;5.654;2023-07-31T15:33:34;20.7;79.0
79356;SHT31;68825;51.978;5.654;2023-07-31T15:36:02;20.7;78.8
79356;SHT31;68825;51.978;5.654;2023-07-31T15:38:31;20.7;78.9
79356;SHT31;68825;51.978;5.654;2023-07-31T15:41:00;20.7;79.1
79356;SHT31;68825;51.978;5.654;2023-07-31T15:43:29;20.7;79.1
79356;SHT31;68825;51.978;5.654;2023-07-31T15:46:00;20.7;79.4
79356;SHT31;68825;51.978;5.654;2023-07-31T15:48:28;20.7;79.3
79356;SHT31;68825;51.978;5.654;2023-07-31T15:50:57;20.7;79.1
79356;SHT31;68825;51.978;5.654;2023-07-31T15:53:27;20.7;79.0
79356;SHT31;68825;51.978;5.654;2023-07-31T15:55:56;20.7;79.0
79356;SHT31;68825;51.978;5.654;2023-07-31T15:58:24;20.7;78.7
79356;SHT31;68825;51.978;5.654;2023-07-31T16:00:53;20.6;79.1
79356;SHT31;68825;51.978;5.654;2023-07-31T16:03:22;20.6;79.3
79356;SHT31;68825;51.978;5.654;2023-07-31T16:05:50;20.6;79.3
79356;SHT31;68825;51.978;5.654;2023-07-31T16:08:19;20.6;79.3
79356;SHT31;68825;51.978;5.654;2023-07-31T16:10:48;20.6;79.2
79356;SHT31;68825;51.978;5.654;2023-07-31T16:13:17;20.6;79.2
79356;SHT31;68825;51.978;5.654;2023-07-31T16:15:47;20.6;79.2
79356;SHT31;68825;51.978;5.654;2023-07-31T16:18:16;20.6;79.1